Time;durP1;ratioP1;P1;durP2;ratioP2;P2;SDS_P1;SDS_P2;PMS_P1;PMS_P2;Temp;Humidity;BMP_temperature;BMP_pressure;BME280_temperature;BME280_humidity;BME280_pressure;Samples;Min_cycle;Max_cycle;Signal;HPM_P1;HPM_P2
2023/09/25 00:02:04;;;;;;;;;;;;;;;19.52;59.95;100384.97;10209052;28;929;-73
2023/09/25 00:07:02;;;;;;;;;;;;;;;19.49;59.98;100376.25;10208226;28;1042;-73
2023/09/25 00:11:58;;;;;;;;;;;;;;;19.48;59.99;100382.44;10208339;28;1894;-73
2023/09/25 00:16:54;;;;;;;;;;;;;;;19.48;60.07;100378.94;10208354;28;816;-73
2023/09/25 00:21:50;;;;;;;;;;;;;;;19.47;60.04;100379.88;10208204;28;771;-73
2023/09/25 00:26:46;;;;;;;;;;;;;;;19.47;59.98;100380.72;10207051;28;957;-73
2023/09/25 00:31:42;;;;;;;;;;;;;;;19.45;60.22;100369.34;10205568;28;1886;-72
2023/09/25 00:36:38;;;;;;;;;;;;;;;19.44;60.10;100372.03;10206968;28;1128;-72
2023/09/25 00:41:34;;;;;;;;;;;;;;;19.43;60.16;100357.13;10207806;28;1042;-72
2023/09/25 00:46:30;;;;;;;;;;;;;;;19.43;60.09;100360.63;10206694;28;900;-73
2023/09/25 00:51:26;;;;;;;;;;;;;;;19.42;60.33;100350.97;10206543;28;1902;-72
2023/09/25 00:56:22;;;;;;;;;;;;;;;19.41;60.20;100343.09;10206324;28;881;-73
2023/09/25 01:01:18;;;;;;;;;;;;;;;19.40;60.13;100342.25;10206974;28;864;-73
2023/09/25 01:06:13;;;;;;;;;;;;;;;19.39;60.21;100342.31;10206020;28;869;-72
2023/09/25 01:11:10;;;;;;;;;;;;;;;19.39;60.32;100339.69;10206919;28;1890;-73
2023/09/25 01:16:05;;;;;;;;;;;;;;;19.38;60.34;100349.38;10205569;28;1089;-73
2023/09/25 01:21:01;;;;;;;;;;;;;;;19.37;60.24;100349.44;10206074;28;941;-73
2023/09/25 01:25:58;;;;;;;;;;;;;;;19.36;60.14;100329.19;10205938;28;835;-73
2023/09/25 01:30:54;;;;;;;;;;;;;;;19.36;60.17;100345.06;10205066;28;1898;-73
2023/09/25 01:35:50;;;;;;;;;;;;;;;19.35;60.51;100338.91;10204368;28;858;-73
2023/09/25 01:40:46;;;;;;;;;;;;;;;19.34;60.54;100346.94;10203688;28;1341;-73
2023/09/25 01:45:42;;;;;;;;;;;;;;;19.33;60.40;100353.97;10204042;28;1211;-73
2023/09/25 01:50:38;;;;;;;;;;;;;;;19.31;60.39;100350.56;10204544;28;1907;-72
2023/09/25 01:55:39;;;;;;;;;;;;;;;19.31;60.39;100342.63;10204469;28;823;-72
2023/09/25 02:00:35;;;;;;;;;;;;;;;19.30;60.48;100351.47;10204992;28;869;-72
2023/09/25 02:05:32;;;;;;;;;;;;;;;19.29;60.37;100346.25;10204731;28;855;-73
2023/09/25 02:10:28;;;;;;;;;;;;;;;19.28;60.43;100334.78;10204510;28;1963;-72
2023/09/25 02:15:23;;;;;;;;;;;;;;;19.29;60.36;100331.25;10203795;28;1024;-73
2023/09/25 02:20:20;;;;;;;;;;;;;;;19.28;60.56;100350.66;10203317;28;866;-73
2023/09/25 02:25:16;;;;;;;;;;;;;;;19.25;60.50;100341.06;10204558;28;834;-73
2023/09/25 02:30:12;;;;;;;;;;;;;;;19.26;60.50;100337.50;10203655;28;940;-72
2023/09/25 02:35:08;;;;;;;;;;;;;;;19.25;60.47;100327.00;10203539;28;1941;-73
2023/09/25 02:40:03;;;;;;;;;;;;;;;19.24;60.38;100325.28;10203969;28;1254;-73
2023/09/25 02:44:59;;;;;;;;;;;;;;;19.23;60.59;100318.25;10204173;28;973;-73
2023/09/25 02:49:55;;;;;;;;;;;;;;;19.23;60.52;100318.25;10203345;28;787;-73
2023/09/25 02:54:51;;;;;;;;;;;;;;;19.22;60.51;100319.19;10206273;28;1914;-73
2023/09/25 02:59:47;;;;;;;;;;;;;;;19.21;60.55;100325.41;10210970;28;821;-73
2023/09/25 03:04:43;;;;;;;;;;;;;;;19.21;60.50;100344.78;10211404;28;829;-73
2023/09/25 03:09:39;;;;;;;;;;;;;;;19.19;60.49;100338.66;10210515;28;1072;-73
2023/09/25 03:14:35;;;;;;;;;;;;;;;19.20;60.52;100358.03;10210455;28;1898;-73
2023/09/25 03:19:35;;;;;;;;;;;;;;;19.18;60.64;100347.53;10209571;28;1250;-73
2023/09/25 03:24:31;;;;;;;;;;;;;;;19.19;60.55;100364.25;10210173;28;974;-73
2023/09/25 03:29:27;;;;;;;;;;;;;;;19.17;60.58;100356.38;10209744;28;850;-73
2023/09/25 03:34:22;;;;;;;;;;;;;;;19.17;60.60;100364.28;10209582;28;1963;-73
2023/09/25 03:39:18;;;;;;;;;;;;;;;19.16;60.73;100365.22;10209622;28;1119;-73
2023/09/25 03:44:14;;;;;;;;;;;;;;;19.16;60.52;100367.88;10209159;28;789;-73
2023/09/25 03:49:10;;;;;;;;;;;;;;;19.16;60.71;100370.50;10209000;28;874;-73
2023/09/25 03:54:06;;;;;;;;;;;;;;;19.14;60.53;100376.78;10208119;28;1914;-73
2023/09/25 03:59:02;;;;;;;;;;;;;;;19.14;60.67;100388.19;10208634;28;875;-73
2023/09/25 04:03:58;;;;;;;;;;;;;;;19.14;60.59;100397.91;10208263;28;826;-73
2023/09/25 04:08:54;;;;;;;;;;;;;;;19.13;60.60;100398.84;10209144;28;759;-73
2023/09/25 04:13:50;;;;;;;;;;;;;;;19.12;60.63;100392.69;10207363;28;1955;-73
2023/09/25 04:18:46;;;;;;;;;;;;;;;19.13;60.54;100398.84;10208210;28;872;-73
2023/09/25 04:23:41;;;;;;;;;;;;;;;19.11;60.46;100413.91;10208343;28;1127;-72
2023/09/25 04:28:37;;;;;;;;;;;;;;;19.17;60.31;100401.28;10208085;28;771;-73
2023/09/25 04:33:33;;;;;;;;;;;;;;;19.23;60.13;100410.75;10207807;28;1894;-72
2023/09/25 04:38:30;;;;;;;;;;;;;;;19.24;60.06;100417.78;10207788;28;1110;-73
2023/09/25 04:43:26;;;;;;;;;;;;;;;19.26;60.03;100410.66;10206626;28;850;-73
2023/09/25 04:48:22;;;;;;;;;;;;;;;19.27;59.89;100410.59;10206795;28;881;-73
2023/09/25 04:53:19;;;;;;;;;;;;;;;19.30;59.99;100403.47;10207042;28;1906;-73
2023/09/25 04:58:15;;;;;;;;;;;;;;;19.32;59.85;100415.69;10206351;28;895;-73
2023/09/25 05:03:11;;;;;;;;;;;;;;;19.38;59.79;100422.53;10206733;28;900;-73
2023/09/25 05:08:07;;;;;;;;;;;;;;;19.41;59.68;100415.38;10206152;28;791;-73
2023/09/25 05:13:03;;;;;;;;;;;;;;;19.42;59.61;100403.84;10205170;28;1894;-73
2023/09/25 05:17:59;;;;;;;;;;;;;;;19.47;59.62;100409.81;10205141;28;1626;-72
2023/09/25 05:22:55;;;;;;;;;;;;;;;19.50;59.35;100406.19;10205543;28;961;-77
2023/09/25 05:27:51;;;;;;;;;;;;;;;19.54;59.51;100409.56;10205341;28;788;-71
2023/09/25 05:32:48;;;;;;;;;;;;;;;19.51;59.58;100409.69;10205170;28;1977;-72
2023/09/25 05:37:45;;;;;;;;;;;;;;;19.54;59.47;100425.44;10204581;28;1092;-72
2023/09/25 05:42:42;;;;;;;;;;;;;;;19.56;59.39;100426.22;10204400;28;1200;-72
2023/09/25 05:47:38;;;;;;;;;;;;;;;19.56;59.36;100428.88;10204538;28;807;-72
2023/09/25 05:52:34;;;;;;;;;;;;;;;19.58;59.34;100427.03;10203886;28;1977;-72
2023/09/25 05:57:31;;;;;;;;;;;;;;;19.57;59.30;100433.22;10204926;28;803;-72
2023/09/25 06:02:27;;;;;;;;;;;;;;;19.57;59.47;100438.53;10204185;28;862;-72
2023/09/25 06:07:23;;;;;;;;;;;;;;;19.57;59.37;100441.16;10204133;28;774;-72
2023/09/25 06:12:19;;;;;;;;;;;;;;;19.52;59.50;100440.47;10204125;28;1898;-72
2023/09/25 06:17:15;;;;;;;;;;;;;;;19.53;59.39;100445.72;10186306;28;778;-72
2023/09/25 06:22:11;;;;;;;;;;;;;;;19.52;59.46;100440.47;10204418;28;867;-72
2023/09/25 06:27:10;;;;;;;;;;;;;;;19.48;59.49;100435.31;10202201;28;1121;-72
2023/09/25 06:32:06;;;;;;;;;;;;;;;19.47;59.49;100438.03;10209494;28;1955;-72
2023/09/25 06:37:02;;;;;;;;;;;;;;;19.44;59.58;100444.31;10212099;28;1321;-69
2023/09/25 06:41:58;;;;;;;;;;;;;;;19.45;59.57;100456.59;10212134;28;866;-68
2023/09/25 06:46:54;;;;;;;;;;;;;;;19.46;59.58;100457.44;10210764;28;1152;-70
2023/09/25 06:51:50;;;;;;;;;;;;;;;19.48;59.32;100464.41;10211168;28;1906;-68
2023/09/25 06:56:48;;;;;;;;;;;;;;;19.48;59.43;100451.19;10212382;28;966;-69
2023/09/25 07:01:44;;;;;;;;;;;;;;;19.47;59.39;100453.91;10210956;28;841;-68
2023/09/25 07:06:40;;;;;;;;;;;;;;;19.48;59.14;100464.41;10211661;28;956;-71
2023/09/25 07:11:36;;;;;;;;;;;;;;;19.51;59.07;100457.28;10210341;28;1944;-70
2023/09/25 07:16:32;;;;;;;;;;;;;;;19.54;59.07;100452.72;10210165;28;860;-69
2023/09/25 07:21:28;;;;;;;;;;;;;;;19.55;58.96;100451.81;10210071;28;967;-68
2023/09/25 07:26:23;;;;;;;;;;;;;;;19.56;58.87;100453.53;10209412;28;954;-73
2023/09/25 07:31:19;;;;;;;;;;;;;;;19.58;58.92;100453.50;10209659;28;1964;-75
2023/09/25 07:36:19;;;;;;;;;;;;;;;19.61;58.92;100454.22;10209429;28;1103;-75
2023/09/25 07:41:15;;;;;;;;;;;;;;;19.61;59.00;100453.34;10209867;28;1195;-75
2023/09/25 07:46:12;;;;;;;;;;;;;;;19.61;58.93;100442.78;10209828;28;892;-74
2023/09/25 07:51:08;;;;;;;;;;;;;;;19.64;58.86;100434.72;10208810;28;1906;-75
2023/09/25 07:56:04;;;;;;;;;;;;;;;19.64;58.78;100440.00;10208270;28;850;-75
2023/09/25 08:01:07;;;;;;;;;;;;;;;19.65;58.89;100442.59;10208593;28;791;-75
2023/09/25 08:06:05;;;;;;;;;;;;;;;19.66;58.92;100443.47;10209012;28;872;-74
2023/09/25 08:11:01;;;;;;;;;;;;;;;19.65;58.97;100441.75;10208900;28;1982;-74
2023/09/25 08:15:57;;;;;;;;;;;;;;;19.67;58.83;100439.91;10208669;28;951;-75
2023/09/25 08:20:53;;;;;;;;;;;;;;;19.68;58.89;100445.16;10207878;28;1022;-75
2023/09/25 08:25:49;;;;;;;;;;;;;;;19.70;58.80;100445.06;10207651;28;967;-74
2023/09/25 08:30:45;;;;;;;;;;;;;;;19.70;58.97;100442.44;10206830;28;1886;-75
2023/09/25 08:35:41;;;;;;;;;;;;;;;19.72;58.99;100442.38;10206772;28;815;-75
2023/09/25 08:40:37;;;;;;;;;;;;;;;19.71;58.97;100446.81;10207464;28;1140;-74
2023/09/25 08:45:33;;;;;;;;;;;;;;;19.72;58.71;100442.38;10206891;28;976;-75
2023/09/25 08:50:30;;;;;;;;;;;;;;;19.72;58.76;100432.66;10206354;28;799;-74
2023/09/25 08:55:26;;;;;;;;;;;;;;;19.71;58.70;100423.00;10205916;28;1918;-75
2023/09/25 09:00:22;;;;;;;;;;;;;;;19.72;58.79;100426.50;10207243;28;883;-75
2023/09/25 09:05:18;;;;;;;;;;;;;;;19.71;58.69;100423.00;10206231;28;736;-74
2023/09/25 09:10:13;;;;;;;;;;;;;;;19.74;58.83;100427.31;10206050;28;870;-74
2023/09/25 09:15:09;;;;;;;;;;;;;;;19.73;58.74;100426.47;10206367;28;1902;-75
2023/09/25 09:20:06;;;;;;;;;;;;;;;19.73;58.64;100429.09;10205610;28;941;-74
2023/09/25 09:25:02;;;;;;;;;;;;;;;19.71;58.84;100433.59;10206079;28;844;-74
2023/09/25 09:29:58;;;;;;;;;;;;;;;19.69;58.87;100436.28;10205348;28;973;-74
2023/09/25 09:34:53;;;;;;;;;;;;;;;19.68;58.79;100424.00;10205216;28;1906;-74
2023/09/25 09:39:52;;;;;;;;;;;;;;;19.66;58.91;100427.59;10205046;28;1360;-75
2023/09/25 09:44:48;;;;;;;;;;;;;;;19.63;59.07;100420.66;10205269;28;873;-75
2023/09/25 09:49:44;;;;;;;;;;;;;;;19.64;59.04;100424.13;10204597;28;870;-74
2023/09/25 09:54:40;;;;;;;;;;;;;;;19.61;58.91;100425.13;10204608;28;1969;-74
2023/09/25 09:59:36;;;;;;;;;;;;;;;19.59;59.13;100413.75;10204662;28;847;-75
2023/09/25 10:04:32;;;;;;;;;;;;;;;19.59;59.02;100418.19;10203437;28;996;-80
2023/09/25 10:09:28;;;;;;;;;;;;;;;19.58;59.03;100413.81;10204204;28;747;-79
2023/09/25 10:14:24;;;;;;;;;;;;;;;19.56;59.08;100405.94;10203885;28;1890;-80
2023/09/25 10:19:20;;;;;;;;;;;;;;;19.56;59.06;100410.38;10203936;28;771;-80
2023/09/25 10:24:16;;;;;;;;;;;;;;;19.54;59.04;100402.47;10203799;28;873;-79
2023/09/25 10:29:11;;;;;;;;;;;;;;;19.54;58.98;100396.34;10203764;28;929;-80
2023/09/25 10:34:08;;;;;;;;;;;;;;;19.54;58.96;100404.28;10204408;28;1894;-79
2023/09/25 10:39:04;;;;;;;;;;;;;;;19.53;58.89;100408.72;10204055;28;1074;-86
2023/09/25 10:44:00;;;;;;;;;;;;;;;19.52;58.99;100398.19;10203508;28;874;-80
2023/09/25 10:48:56;;;;;;;;;;;;;;;19.51;58.74;100399.13;10203923;28;807;-79
2023/09/25 10:53:51;;;;;;;;;;;;;;;19.49;59.05;100391.22;10203802;28;1969;-79
2023/09/25 10:58:52;;;;;;;;;;;;;;;19.48;59.00;100387.72;10203156;28;1086;-75
2023/09/25 11:03:48;;;;;;;;;;;;;;;19.49;58.93;100383.28;10202535;28;1267;-74
2023/09/25 11:08:44;;;;;;;;;;;;;;;19.48;58.81;100377.16;10202434;28;835;-76
2023/09/25 11:13:40;;;;;;;;;;;;;;;19.47;59.02;100372.81;10202778;28;1981;-77
2023/09/25 11:18:36;;;;;;;;;;;;;;;19.48;58.87;100374.50;10223203;28;1876;-75
2023/09/25 11:23:32;;;;;;;;;;;;;;;19.48;58.96;100371.00;10232230;28;838;-74
2023/09/25 11:28:28;;;;;;;;;;;;;;;19.48;58.98;100352.50;10233887;28;1082;-74
2023/09/25 11:33:24;;;;;;;;;;;;;;;19.48;59.08;100350.72;10247480;28;1898;-74
2023/09/25 11:38:28;;;;;;;;;;;;;;;19.48;59.02;100348.06;10225789;28;1871;-75
2023/09/25 11:43:25;;;;;;;;;;;;;;;19.48;58.90;100340.13;10243402;28;867;-74
2023/09/25 11:48:22;;;;;;;;;;;;;;;19.48;59.01;100334.84;10208905;28;947;-74
2023/09/25 11:53:18;;;;;;;;;;;;;;;19.48;59.11;100341.94;10224594;28;1914;-74
2023/09/25 11:58:14;;;;;;;;;;;;;;;19.48;59.12;100336.63;10228871;28;1665;-74
2023/09/25 12:03:10;;;;;;;;;;;;;;;19.55;58.88;100342.56;10249444;28;987;-73
2023/09/25 12:08:06;;;;;;;;;;;;;;;19.51;58.94;100344.44;10248428;28;783;-73
2023/09/25 12:13:03;;;;;;;;;;;;;;;19.51;59.05;100344.44;10244122;28;1991;-73
2023/09/25 12:17:59;;;;;;;;;;;;;;;19.51;58.87;100357.66;10247901;28;922;-74
2023/09/25 12:22:55;;;;;;;;;;;;;;;19.53;58.89;100363.75;10248631;28;831;-73
2023/09/25 12:27:51;;;;;;;;;;;;;;;19.53;58.87;100361.13;10247815;28;887;-73
2023/09/25 12:32:48;;;;;;;;;;;;;;;19.54;58.84;100364.63;10247416;28;1895;-73
2023/09/25 12:37:44;;;;;;;;;;;;;;;19.56;58.71;100366.28;10208782;28;1235;-73
2023/09/25 12:42:40;;;;;;;;;;;;;;;19.57;58.69;100361.84;10206350;28;898;-73
2023/09/25 12:47:36;;;;;;;;;;;;;;;19.59;58.75;100360.00;10206461;28;886;-74
2023/09/25 12:52:32;;;;;;;;;;;;;;;19.64;58.62;100360.66;10206469;28;1955;-73
2023/09/25 12:57:27;;;;;;;;;;;;;;;19.69;58.33;100354.28;10206249;28;1010;-72
2023/09/25 13:02:23;;;;;;;;;;;;;;;19.73;58.40;100347.13;10206268;28;850;-73
2023/09/25 13:07:19;;;;;;;;;;;;;;;19.79;58.29;100352.13;10205693;28;976;-73
2023/09/25 13:12:15;;;;;;;;;;;;;;;19.85;58.28;100351.00;10205609;28;1894;-74
2023/09/25 13:17:11;;;;;;;;;;;;;;;19.90;57.98;100351.69;10206157;28;848;-72
2023/09/25 13:22:08;;;;;;;;;;;;;;;20.00;57.93;100347.72;10205727;28;862;-69
2023/09/25 13:27:04;;;;;;;;;;;;;;;20.07;57.66;100343.03;10205451;28;871;-71
2023/09/25 13:32:00;;;;;;;;;;;;;;;20.13;57.83;100338.31;10205971;28;1953;-81
2023/09/25 13:36:56;;;;;;;;;;;;;;;20.35;57.39;100340.88;10203859;28;1674;-81
2023/09/25 13:41:51;;;;;;;;;;;;;;;20.46;57.17;100337.75;10205726;28;847;-81
2023/09/25 13:46:47;;;;;;;;;;;;;;;20.50;57.09;100354.38;10205628;28;961;-81
2023/09/25 13:51:44;;;;;;;;;;;;;;;20.50;57.21;100349.06;10204593;28;1977;-81
2023/09/25 13:56:40;;;;;;;;;;;;;;;20.52;57.13;100352.50;10204450;28;934;-81
2023/09/25 14:01:36;;;;;;;;;;;;;;;20.61;56.92;100349.47;10203761;28;1249;-80
2023/09/25 14:06:31;;;;;;;;;;;;;;;20.62;57.13;100351.22;10204255;28;832;-80
2023/09/25 14:11:27;;;;;;;;;;;;;;;20.62;57.13;100347.66;10204092;28;1894;-80
2023/09/25 14:16:23;;;;;;;;;;;;;;;20.66;57.02;100355.41;10204065;28;926;-80
2023/09/25 14:21:20;;;;;;;;;;;;;;;20.69;56.83;100363.22;10203955;28;850;-80
2023/09/25 14:26:16;;;;;;;;;;;;;;;20.76;56.74;100359.38;10204511;28;956;-80
2023/09/25 14:31:12;;;;;;;;;;;;;;;20.87;56.71;100356.22;10204247;28;1898;-80
2023/09/25 14:36:08;;;;;;;;;;;;;;;20.96;56.35;100355.81;10204458;28;796;-81
2023/09/25 14:41:05;;;;;;;;;;;;;;;21.07;56.10;100362.41;10204153;28;1162;-80
2023/09/25 14:46:01;;;;;;;;;;;;;;;21.14;55.95;100362.03;10203853;28;852;-81
2023/09/25 14:50:57;;;;;;;;;;;;;;;21.08;56.27;100367.59;10206904;28;1969;-81
2023/09/25 14:55:53;;;;;;;;;;;;;;;21.28;55.96;100366.66;10211226;28;951;-80
2023/09/25 15:00:49;;;;;;;;;;;;;;;21.28;55.80;100365.81;10210805;28;1234;-73
2023/09/25 15:05:45;;;;;;;;;;;;;;;21.19;56.20;100362.66;10210175;28;885;-79
2023/09/25 15:10:41;;;;;;;;;;;;;;;21.11;56.19;100354.19;10210687;28;775;-82
2023/09/25 15:15:37;;;;;;;;;;;;;;;21.00;56.54;100356.50;10210521;28;1895;-81
2023/09/25 15:20:33;;;;;;;;;;;;;;;20.88;56.81;100355.31;10211340;28;834;-81
2023/09/25 15:25:30;;;;;;;;;;;;;;;21.01;56.54;100355.56;10210078;28;781;-81
2023/09/25 15:30:26;;;;;;;;;;;;;;;21.08;56.58;100353.50;10209883;28;966;-83
2023/09/25 15:35:22;;;;;;;;;;;;;;;20.92;56.83;100354.22;10192756;28;1895;-83
2023/09/25 15:40:22;;;;;;;;;;;;;;;20.99;56.86;100354.81;10208822;28;1110;-83
2023/09/25 15:45:18;;;;;;;;;;;;;;;20.79;57.15;100345.97;10209980;28;902;-82
2023/09/25 15:50:14;;;;;;;;;;;;;;;20.70;57.41;100359.66;10209854;28;866;-82
2023/09/25 15:55:10;;;;;;;;;;;;;;;20.63;57.46;100360.00;10208961;28;1910;-81
2023/09/25 16:00:06;;;;;;;;;;;;;;;20.60;57.57;100357.50;10208387;28;872;-81
2023/09/25 16:05:03;;;;;;;;;;;;;;;20.57;57.78;100361.16;10208689;28;791;-81
2023/09/25 16:09:59;;;;;;;;;;;;;;;20.56;57.80;100372.66;10208516;28;940;-81
2023/09/25 16:14:58;;;;;;;;;;;;;;;20.54;57.78;100369.19;10208216;28;1910;-81
2023/09/25 16:19:54;;;;;;;;;;;;;;;20.52;57.83;100366.59;10208422;28;883;-81
2023/09/25 16:24:50;;;;;;;;;;;;;;;20.51;57.78;100369.31;10208784;28;835;-81
2023/09/25 16:29:45;;;;;;;;;;;;;;;20.47;57.86;100363.31;10207837;28;928;-82
2023/09/25 16:34:41;;;;;;;;;;;;;;;20.46;58.11;100371.31;10207397;28;1962;-72
2023/09/25 16:39:37;;;;;;;;;;;;;;;20.45;57.96;100374.91;10208218;28;1382;-80
2023/09/25 16:44:33;;;;;;;;;;;;;;;20.45;57.85;100369.59;10207097;28;806;-80
2023/09/25 16:49:29;;;;;;;;;;;;;;;20.46;57.96;100368.66;10208263;28;850;-82
2023/09/25 16:54:25;;;;;;;;;;;;;;;20.45;58.07;100364.31;10207251;28;1910;-80
2023/09/25 16:59:21;;;;;;;;;;;;;;;20.44;58.01;100378.47;10207147;28;882;-80
2023/09/25 17:04:17;;;;;;;;;;;;;;;20.41;58.10;100374.19;10206981;28;901;-81
2023/09/25 17:09:13;;;;;;;;;;;;;;;20.40;58.09;100368.94;10206618;28;881;-71
2023/09/25 17:14:10;;;;;;;;;;;;;;;20.39;58.17;100360.16;10205417;28;1898;-82
2023/09/25 17:19:06;;;;;;;;;;;;;;;20.42;58.23;100367.09;10206362;28;873;-81
2023/09/25 17:24:02;;;;;;;;;;;;;;;20.42;58.15;100369.75;10205598;28;851;-82
2023/09/25 17:28:58;;;;;;;;;;;;;;;20.41;58.16;100368.00;10204943;28;960;-83
2023/09/25 17:33:54;;;;;;;;;;;;;;;20.40;58.26;100372.44;10205001;28;1898;-82
2023/09/25 17:38:50;;;;;;;;;;;;;;;20.41;58.27;100373.28;10204635;28;1397;-81
2023/09/25 17:43:46;;;;;;;;;;;;;;;20.40;58.36;100382.19;10204981;28;1021;-81
2023/09/25 17:48:46;;;;;;;;;;;;;;;20.40;58.30;100372.44;10204842;28;881;-81
2023/09/25 17:53:42;;;;;;;;;;;;;;;20.41;58.24;100376.84;10204495;28;1914;-81
2023/09/25 17:58:38;;;;;;;;;;;;;;;20.42;58.22;100382.97;10205685;28;894;-82
2023/09/25 18:03:34;;;;;;;;;;;;;;;20.42;58.23;100375.88;10204500;28;858;-81
2023/09/25 18:08:30;;;;;;;;;;;;;;;20.41;58.26;100373.28;10203815;28;871;-82
2023/09/25 18:13:26;;;;;;;;;;;;;;;20.41;58.36;100378.59;10203944;28;1980;-81
2023/09/25 18:18:22;;;;;;;;;;;;;;;20.41;58.40;100394.47;10204459;28;822;-82
2023/09/25 18:23:18;;;;;;;;;;;;;;;20.42;58.23;100388.28;10203907;28;889;-81
2023/09/25 18:28:14;;;;;;;;;;;;;;;20.43;58.18;100389.97;10204492;28;811;-81
2023/09/25 18:33:10;;;;;;;;;;;;;;;20.43;58.24;100398.78;10204176;28;1958;-81
2023/09/25 18:38:06;;;;;;;;;;;;;;;20.43;58.28;100406.72;10204475;28;1285;-81
2023/09/25 18:43:02;;;;;;;;;;;;;;;20.42;58.17;100405.00;10203551;28;901;-82
2023/09/25 18:47:58;;;;;;;;;;;;;;;20.43;58.46;100397.94;10203414;28;975;-82
2023/09/25 18:52:54;;;;;;;;;;;;;;;20.44;58.30;100415.56;10203812;28;1906;-81
2023/09/25 18:57:50;;;;;;;;;;;;;;;20.46;58.42;100417.22;10203301;28;952;-82
2023/09/25 19:02:46;;;;;;;;;;;;;;;20.45;58.39;100417.25;10203792;28;849;-81
2023/09/25 19:07:42;;;;;;;;;;;;;;;20.45;58.26;100412.81;10203002;28;827;-81
2023/09/25 19:12:38;;;;;;;;;;;;;;;20.44;58.46;100416.41;10202906;28;1894;-81
2023/09/25 19:17:34;;;;;;;;;;;;;;;20.45;58.34;100422.56;10202500;28;1067;-81
2023/09/25 19:22:30;;;;;;;;;;;;;;;20.45;58.34;100430.50;10202866;28;801;-81
2023/09/25 19:27:26;;;;;;;;;;;;;;;20.46;58.19;100426.91;10202155;28;917;-81
2023/09/25 19:32:21;;;;;;;;;;;;;;;20.46;58.40;100426.91;10203461;28;1957;-82
2023/09/25 19:37:20;;;;;;;;;;;;;;;20.45;58.32;100434.00;10205779;28;1467;-81
2023/09/25 19:42:16;;;;;;;;;;;;;;;20.45;58.46;100427.84;10209490;28;1119;-81
2023/09/25 19:47:12;;;;;;;;;;;;;;;20.44;58.47;100434.94;10209317;28;968;-82
2023/09/25 19:52:08;;;;;;;;;;;;;;;20.44;58.49;100442.03;10209136;28;1915;-80
2023/09/25 19:57:07;;;;;;;;;;;;;;;20.45;58.47;100441.09;10208321;28;808;-82
2023/09/25 20:02:03;;;;;;;;;;;;;;;20.40;58.43;100437.78;10209414;28;878;-82
2023/09/25 20:06:59;;;;;;;;;;;;;;;20.38;58.53;100429.91;10208841;28;826;-82
2023/09/25 20:11:57;;;;;;;;;;;;;;;20.36;58.46;100440.56;10208722;28;1902;-82
2023/09/25 20:16:53;;;;;;;;;;;;;;;20.35;58.55;100438.81;10208041;28;864;-82
2023/09/25 20:21:49;;;;;;;;;;;;;;;20.35;58.35;100433.53;10208582;28;889;-82
2023/09/25 20:26:45;;;;;;;;;;;;;;;20.33;58.58;100431.88;10207842;28;802;-83
2023/09/25 20:31:40;;;;;;;;;;;;;;;20.32;58.57;100436.31;10207650;28;1955;-82
2023/09/25 20:36:36;;;;;;;;;;;;;;;20.31;58.67;100439.06;10207824;28;1028;-82
2023/09/25 20:41:32;;;;;;;;;;;;;;;20.32;58.59;100432.81;10208679;28;863;-82
2023/09/25 20:46:28;;;;;;;;;;;;;;;20.30;58.53;100437.31;10206833;28;866;-83
2023/09/25 20:51:24;;;;;;;;;;;;;;;20.29;58.47;100427.66;10206894;28;1926;-82
2023/09/25 20:56:21;;;;;;;;;;;;;;;20.29;58.50;100430.31;10206858;28;854;-82
2023/09/25 21:01:17;;;;;;;;;;;;;;;20.26;58.63;100426.00;10207338;28;890;-82
2023/09/25 21:06:13;;;;;;;;;;;;;;;20.25;58.32;100426.94;10205768;28;880;-82
2023/09/25 21:11:09;;;;;;;;;;;;;;;20.25;58.36;100428.69;10206362;28;1898;-82
2023/09/25 21:16:05;;;;;;;;;;;;;;;20.25;58.26;100426.06;10206533;28;870;-83
2023/09/25 21:21:01;;;;;;;;;;;;;;;20.24;58.25;100424.34;10205805;28;719;-83
2023/09/25 21:25:57;;;;;;;;;;;;;;;20.21;58.14;100420.03;10205648;28;1030;-82
2023/09/25 21:30:53;;;;;;;;;;;;;;;20.20;58.25;100420.09;10205496;28;859;-83
2023/09/25 21:35:49;;;;;;;;;;;;;;;20.20;58.08;100420.97;10204718;28;1895;-83
2023/09/25 21:40:45;;;;;;;;;;;;;;;20.19;58.28;100410.44;10204958;28;1855;-83
2023/09/25 21:45:41;;;;;;;;;;;;;;;20.20;58.11;100413.03;10204869;28;878;-83
2023/09/25 21:50:37;;;;;;;;;;;;;;;20.22;58.31;100405.00;10204843;28;869;-82
2023/09/25 21:55:33;;;;;;;;;;;;;;;20.20;58.27;100401.56;10204639;28;1969;-83
2023/09/25 22:00:28;;;;;;;;;;;;;;;20.16;58.27;100394.69;10204774;28;858;-82
2023/09/25 22:05:24;;;;;;;;;;;;;;;20.14;58.59;100400.91;10204408;28;976;-82
2023/09/25 22:10:22;;;;;;;;;;;;;;;20.12;58.38;100404.53;10204263;28;862;-82
2023/09/25 22:15:18;;;;;;;;;;;;;;;20.11;58.39;100400.19;10204015;28;1965;-82
2023/09/25 22:20:17;;;;;;;;;;;;;;;20.07;58.31;100396.81;10203932;28;938;-83
2023/09/25 22:25:13;;;;;;;;;;;;;;;20.05;58.30;100395.16;10204072;28;779;-82
2023/09/25 22:30:10;;;;;;;;;;;;;;;20.04;58.11;100391.66;10204364;28;875;-83
2023/09/25 22:35:07;;;;;;;;;;;;;;;20.03;58.33;100389.91;10204610;28;1894;-82
2023/09/25 22:40:12;;;;;;;;;;;;;;;20.01;58.41;100381.19;10203853;28;1310;-82
2023/09/25 22:45:08;;;;;;;;;;;;;;;20.00;58.38;100370.69;10204269;28;897;-82
2023/09/25 22:50:04;;;;;;;;;;;;;;;19.98;58.35;100381.31;10203529;28;879;-82
2023/09/25 22:55:00;;;;;;;;;;;;;;;19.97;58.33;100381.41;10202767;28;1906;-82
2023/09/25 22:59:56;;;;;;;;;;;;;;;19.96;58.38;100384.94;10203292;28;769;-82
2023/09/25 23:04:52;;;;;;;;;;;;;;;19.93;58.39;100385.94;10203245;28;805;-82
2023/09/25 23:09:48;;;;;;;;;;;;;;;19.91;58.61;100380.72;10203054;28;977;-83
2023/09/25 23:14:44;;;;;;;;;;;;;;;19.89;58.49;100379.94;10209908;28;1957;-82
2023/09/25 23:19:40;;;;;;;;;;;;;;;19.89;58.46;100372.00;10210421;28;997;-82
2023/09/25 23:24:36;;;;;;;;;;;;;;;19.88;58.62;100359.66;10210347;28;938;-83
2023/09/25 23:29:32;;;;;;;;;;;;;;;19.87;58.65;100367.69;10210718;28;822;-82
2023/09/25 23:34:28;;;;;;;;;;;;;;;19.86;58.53;100374.78;10209912;28;1906;-83
2023/09/25 23:39:27;;;;;;;;;;;;;;;19.84;58.52;100373.13;10210118;28;1248;-82
2023/09/25 23:44:23;;;;;;;;;;;;;;;19.84;58.60;100373.13;10210088;28;1641;-83
2023/09/25 23:49:19;;;;;;;;;;;;;;;19.82;58.44;100375.81;10209436;28;917;-83
2023/09/25 23:54:15;;;;;;;;;;;;;;;19.81;58.70;100381.19;10208567;28;1914;-83
2023/09/25 23:59:11;;;;;;;;;;;;;;;19.79;58.47;100375.94;10209024;28;863;-82
